Time;durP1;ratioP1;P1;durP2;ratioP2;P2;SDS_P1;SDS_P2;PMS_P1;PMS_P2;Temp;Humidity;BMP_temperature;BMP_pressure;BME280_temperature;BME280_humidity;BME280_pressure;Samples;Min_cycle;Max_cycle;Signal;HPM_P1;HPM_P2
2022/10/19 00:00:38;;;;;;;;;;;;;;;;;;5012426;28;19916;-64
2022/10/19 00:03:03;;;;;;;;;;;;;;;;;;5013967;28;19909;-62
2022/10/19 00:05:29;;;;;;;;;;;;;;;;;;5012940;28;20000;-64
2022/10/19 00:07:55;;;;;;;;;;;;;;;;;;5010269;28;19916;-63
2022/10/19 00:10:21;;;;;;;;;;;;;;;;;;5014510;28;19910;-63
2022/10/19 00:12:47;;;;;;;;;;;;;;;;;;5009703;28;20409;-63
2022/10/19 00:15:13;;;;;;;;;;;;;;;;;;5014377;28;19975;-64
2022/10/19 00:17:39;;;;;;;;;;;;;;;;;;5014172;28;20378;-62
2022/10/19 00:20:05;;;;;;;;;;;;;;;;;;5013970;28;19910;-65
2022/10/19 00:22:31;;;;;;;;;;;;;;;;;;5013954;28;19909;-63
2022/10/19 00:24:57;;;;;;;;;;;;;;;;;;5033523;28;19924;-65
2022/10/19 00:27:22;;;;;;;;;;;;;;;;;;5032973;28;19913;-65
2022/10/19 00:29:48;;;;;;;;;;;;;;;;;;5014311;28;20003;-64
2022/10/19 00:32:14;;;;;;;;;;;;;;;;;;5011748;28;19971;-63
2022/10/19 00:34:40;;;;;;;;;;;;;;;;;;5013819;28;19909;-64
2022/10/19 00:37:06;;;;;;;;;;;;;;;;;;5013934;28;20016;-64
2022/10/19 00:39:32;;;;;;;;;;;;;;;;;;5018628;28;20366;-64
2022/10/19 00:41:58;;;;;;;;;;;;;;;;;;5031481;28;19943;-63
2022/10/19 00:44:23;;;;;;;;;;;;;;;;;;5032588;28;19935;-65
2022/10/19 00:46:51;;;;;;;;;;;;;;;;;;5032742;28;19914;-63
2022/10/19 00:49:17;;;;;;;;;;;;;;;;;;5032321;28;19916;-64
2022/10/19 00:51:43;;;;;;;;;;;;;;;;;;5032375;28;19917;-64
2022/10/19 00:54:09;;;;;;;;;;;;;;;;;;5032618;28;19975;-62
2022/10/19 00:56:35;;;;;;;;;;;;;;;;;;5032257;28;19910;-63
2022/10/19 00:59:01;;;;;;;;;;;;;;;;;;5019742;28;20541;-64
2022/10/19 01:01:27;;;;;;;;;;;;;;;;;;5013033;28;19917;-62
2022/10/19 01:03:53;;;;;;;;;;;;;;;;;;5013215;28;20331;-64
2022/10/19 01:06:18;;;;;;;;;;;;;;;;;;5012342;28;19939;-64
2022/10/19 01:08:44;;;;;;;;;;;;;;;;;;5013288;28;20375;-61
2022/10/19 01:11:10;;;;;;;;;;;;;;;;;;5013449;28;19916;-64
2022/10/19 01:13:36;;;;;;;;;;;;;;;;;;5013118;28;19928;-65
2022/10/19 01:16:02;;;;;;;;;;;;;;;;;;5013118;28;19980;-62
2022/10/19 01:18:28;;;;;;;;;;;;;;;;;;5013291;28;19909;-64
2022/10/19 01:20:54;;;;;;;;;;;;;;;;;;5013403;28;19920;-64
2022/10/19 01:23:20;;;;;;;;;;;;;;;;;;5012870;28;20323;-64
2022/10/19 01:25:45;;;;;;;;;;;;;;;;;;5012864;28;19964;-63
2022/10/19 01:28:11;;;;;;;;;;;;;;;;;;5013552;28;19917;-64
2022/10/19 01:30:37;;;;;;;;;;;;;;;;;;5012521;28;20383;-64
2022/10/19 01:33:03;;;;;;;;;;;;;;;;;;5012791;28;19933;-65
2022/10/19 01:35:29;;;;;;;;;;;;;;;;;;5008773;28;19913;-64
2022/10/19 01:37:55;;;;;;;;;;;;;;;;;;5012932;28;19925;-65
2022/10/19 01:40:21;;;;;;;;;;;;;;;;;;5023916;28;20028;-64
2022/10/19 01:42:47;;;;;;;;;;;;;;;;;;5014012;28;19922;-64
2022/10/19 01:45:12;;;;;;;;;;;;;;;;;;5012661;28;19909;-65
2022/10/19 01:47:38;;;;;;;;;;;;;;;;;;5012598;28;19917;-65
2022/10/19 01:50:04;;;;;;;;;;;;;;;;;;5012687;28;19960;-64
2022/10/19 01:52:30;;;;;;;;;;;;;;;;;;5012568;28;20040;-65
2022/10/19 01:54:56;;;;;;;;;;;;;;;;;;5012617;28;19909;-63
2022/10/19 01:57:22;;;;;;;;;;;;;;;;;;5012071;28;20363;-65
2022/10/19 01:59:48;;;;;;;;;;;;;;;;;;5012048;28;19952;-64
2022/10/19 02:02:14;;;;;;;;;;;;;;;;;;5007419;28;19960;-63
2022/10/19 02:04:40;;;;;;;;;;;;;;;;;;5008353;28;19917;-63
2022/10/19 02:07:05;;;;;;;;;;;;;;;;;;5012301;28;19910;-64
2022/10/19 02:09:32;;;;;;;;;;;;;;;;;;5012371;28;19910;-63
2022/10/19 02:11:57;;;;;;;;;;;;;;;;;;5007144;28;19999;-63
2022/10/19 02:14:23;;;;;;;;;;;;;;;;;;5006647;28;19964;-64
2022/10/19 02:16:49;;;;;;;;;;;;;;;;;;5011567;28;19920;-63
2022/10/19 02:19:15;;;;;;;;;;;;;;;;;;5012258;28;19917;-62
2022/10/19 02:21:41;;;;;;;;;;;;;;;;;;5011882;28;20322;-64
2022/10/19 02:24:07;;;;;;;;;;;;;;;;;;5011728;28;19914;-64
2022/10/19 02:26:33;;;;;;;;;;;;;;;;;;5011059;28;19913;-63
2022/10/19 02:28:59;;;;;;;;;;;;;;;;;;5011557;28;19910;-63
2022/10/19 02:31:25;;;;;;;;;;;;;;;;;;5011768;28;19914;-63
2022/10/19 02:33:50;;;;;;;;;;;;;;;;;;5011781;28;19917;-63
2022/10/19 02:36:16;;;;;;;;;;;;;;;;;;5012038;28;19917;-61
2022/10/19 02:38:42;;;;;;;;;;;;;;;;;;5008039;28;20305;-63
2022/10/19 02:41:08;;;;;;;;;;;;;;;;;;5029400;28;19910;-63
2022/10/19 02:43:34;;;;;;;;;;;;;;;;;;5030485;28;19909;-62
2022/10/19 02:46:00;;;;;;;;;;;;;;;;;;5030636;28;19959;-63
2022/10/19 02:48:26;;;;;;;;;;;;;;;;;;5030562;28;19913;-63
2022/10/19 02:50:52;;;;;;;;;;;;;;;;;;5030324;28;19920;-64
2022/10/19 02:53:17;;;;;;;;;;;;;;;;;;5030285;28;19924;-64
2022/10/19 02:55:43;;;;;;;;;;;;;;;;;;5013502;28;20674;-64
2022/10/19 02:58:09;;;;;;;;;;;;;;;;;;5011188;28;19920;-62
2022/10/19 03:00:35;;;;;;;;;;;;;;;;;;5012047;28;20398;-62
2022/10/19 03:03:02;;;;;;;;;;;;;;;;;;5009376;28;19972;-63
2022/10/19 03:05:27;;;;;;;;;;;;;;;;;;5011550;28;19909;-61
2022/10/19 03:07:53;;;;;;;;;;;;;;;;;;5011386;28;20013;-64
2022/10/19 03:10:19;;;;;;;;;;;;;;;;;;5011657;28;20374;-62
2022/10/19 03:12:45;;;;;;;;;;;;;;;;;;5011472;28;19917;-63
2022/10/19 03:15:11;;;;;;;;;;;;;;;;;;5005123;28;20000;-63
2022/10/19 03:17:37;;;;;;;;;;;;;;;;;;5011836;28;19920;-63
2022/10/19 03:20:03;;;;;;;;;;;;;;;;;;5011648;28;20387;-64
2022/10/19 03:22:29;;;;;;;;;;;;;;;;;;5009833;28;19940;-64
2022/10/19 03:24:55;;;;;;;;;;;;;;;;;;5011178;28;20297;-64
2022/10/19 03:27:20;;;;;;;;;;;;;;;;;;5010755;28;19913;-64
2022/10/19 03:29:46;;;;;;;;;;;;;;;;;;5012896;28;19910;-62
2022/10/19 03:32:12;;;;;;;;;;;;;;;;;;5021467;28;19929;-62
2022/10/19 03:34:38;;;;;;;;;;;;;;;;;;5034367;28;19951;-63
2022/10/19 03:37:04;;;;;;;;;;;;;;;;;;5033798;28;19965;-63
2022/10/19 03:39:30;;;;;;;;;;;;;;;;;;5023583;28;20404;-63
2022/10/19 03:41:56;;;;;;;;;;;;;;;;;;5033951;28;19955;-63
2022/10/19 03:44:22;;;;;;;;;;;;;;;;;;5014764;28;19917;-63
2022/10/19 03:46:48;;;;;;;;;;;;;;;;;;5013484;28;19920;-64
2022/10/19 03:49:13;;;;;;;;;;;;;;;;;;5013536;28;19999;-63
2022/10/19 03:51:39;;;;;;;;;;;;;;;;;;5014907;28;19913;-64
2022/10/19 03:54:05;;;;;;;;;;;;;;;;;;5014502;28;19985;-65
2022/10/19 03:56:31;;;;;;;;;;;;;;;;;;5014355;28;19956;-64
2022/10/19 03:58:57;;;;;;;;;;;;;;;;;;5014753;28;19909;-64
2022/10/19 04:01:23;;;;;;;;;;;;;;;;;;5014506;28;19971;-64
2022/10/19 04:03:49;;;;;;;;;;;;;;;;;;5013039;28;19909;-62
2022/10/19 04:06:15;;;;;;;;;;;;;;;;;;5014683;28;19957;-64
2022/10/19 04:08:41;;;;;;;;;;;;;;;;;;5014264;28;19916;-65
2022/10/19 04:11:06;;;;;;;;;;;;;;;;;;5014508;28;19909;-65
2022/10/19 04:13:32;;;;;;;;;;;;;;;;;;5014155;28;19957;-64
2022/10/19 04:15:58;;;;;;;;;;;;;;;;;;5014249;28;19917;-64
2022/10/19 04:18:24;;;;;;;;;;;;;;;;;;5014394;28;19910;-65
2022/10/19 04:20:50;;;;;;;;;;;;;;;;;;5013865;28;19924;-64
2022/10/19 04:23:16;;;;;;;;;;;;;;;;;;5013963;28;19948;-63
2022/10/19 04:25:42;;;;;;;;;;;;;;;;;;5013878;28;19932;-63
2022/10/19 04:28:08;;;;;;;;;;;;;;;;;;5014153;28;19917;-62
2022/10/19 04:30:33;;;;;;;;;;;;;;;;;;5013745;28;19952;-63
2022/10/19 04:32:59;;;;;;;;;;;;;;;;;;5013889;28;19918;-62
2022/10/19 04:35:25;;;;;;;;;;;;;;;;;;5019847;28;19916;-63
2022/10/19 04:37:51;;;;;;;;;;;;;;;;;;5032574;28;19968;-63
2022/10/19 04:40:17;;;;;;;;;;;;;;;;;;5028449;28;19909;-62
2022/10/19 04:42:43;;;;;;;;;;;;;;;;;;5033037;28;19913;-63
2022/10/19 04:45:09;;;;;;;;;;;;;;;;;;5032695;28;20378;-64
2022/10/19 04:47:35;;;;;;;;;;;;;;;;;;5032936;28;19932;-62
2022/10/19 04:50:00;;;;;;;;;;;;;;;;;;5032505;28;20405;-64
2022/10/19 04:52:26;;;;;;;;;;;;;;;;;;5029044;28;19917;-64
2022/10/19 04:54:52;;;;;;;;;;;;;;;;;;5012877;28;19916;-64
2022/10/19 04:57:18;;;;;;;;;;;;;;;;;;5012923;28;19914;-64
2022/10/19 04:59:44;;;;;;;;;;;;;;;;;;5026051;28;20314;-62
2022/10/19 05:02:10;;;;;;;;;;;;;;;;;;5028842;28;19913;-64
2022/10/19 05:04:36;;;;;;;;;;;;;;;;;;5031865;28;20310;-63
2022/10/19 05:07:02;;;;;;;;;;;;;;;;;;5031988;28;19918;-65
2022/10/19 05:09:27;;;;;;;;;;;;;;;;;;5031491;28;20398;-64
2022/10/19 05:11:53;;;;;;;;;;;;;;;;;;5030311;28;19932;-65
2022/10/19 05:14:19;;;;;;;;;;;;;;;;;;5031918;28;19948;-64
2022/10/19 05:16:45;;;;;;;;;;;;;;;;;;5031471;28;19909;-64
2022/10/19 05:19:11;;;;;;;;;;;;;;;;;;5031719;28;19916;-63
2022/10/19 05:21:37;;;;;;;;;;;;;;;;;;5031352;28;20298;-64
2022/10/19 05:24:03;;;;;;;;;;;;;;;;;;5024186;28;20008;-64
2022/10/19 05:26:29;;;;;;;;;;;;;;;;;;5010142;28;19910;-63
2022/10/19 05:28:55;;;;;;;;;;;;;;;;;;5011977;28;19909;-64
2022/10/19 05:31:21;;;;;;;;;;;;;;;;;;5012731;28;19944;-64
2022/10/19 05:33:47;;;;;;;;;;;;;;;;;;5012370;28;19918;-64
2022/10/19 05:36:12;;;;;;;;;;;;;;;;;;5031457;28;19967;-64
2022/10/19 05:38:38;;;;;;;;;;;;;;;;;;5027903;28;20402;-66
2022/10/19 05:41:04;;;;;;;;;;;;;;;;;;5029353;28;19909;-64
2022/10/19 05:43:30;;;;;;;;;;;;;;;;;;5031272;28;19909;-63
2022/10/19 05:45:56;;;;;;;;;;;;;;;;;;5019650;28;19913;-63
2022/10/19 05:48:22;;;;;;;;;;;;;;;;;;5029622;28;19924;-63
2022/10/19 05:50:48;;;;;;;;;;;;;;;;;;5031016;28;19952;-62
2022/10/19 05:53:14;;;;;;;;;;;;;;;;;;5030805;28;20011;-63
2022/10/19 05:55:40;;;;;;;;;;;;;;;;;;5031232;28;20432;-64
2022/10/19 05:58:06;;;;;;;;;;;;;;;;;;5031598;28;19916;-63
2022/10/19 06:00:32;;;;;;;;;;;;;;;;;;5031143;28;20360;-64
2022/10/19 06:02:58;;;;;;;;;;;;;;;;;;5031457;28;19963;-63
2022/10/19 06:05:24;;;;;;;;;;;;;;;;;;5031062;28;20706;-63
2022/10/19 06:07:49;;;;;;;;;;;;;;;;;;5030876;28;19913;-64
2022/10/19 06:10:16;;;;;;;;;;;;;;;;;;5031094;28;19940;-63
2022/10/19 06:12:42;;;;;;;;;;;;;;;;;;5031141;28;19917;-64
2022/10/19 06:15:07;;;;;;;;;;;;;;;;;;5031059;28;19916;-63
2022/10/19 06:17:33;;;;;;;;;;;;;;;;;;5029854;28;19975;-63
2022/10/19 06:19:59;;;;;;;;;;;;;;;;;;5013101;28;19951;-63
2022/10/19 06:22:25;;;;;;;;;;;;;;;;;;5011333;28;19913;-69
2022/10/19 06:24:51;;;;;;;;;;;;;;;;;;5012196;28;20441;-69
2022/10/19 06:27:17;;;;;;;;;;;;;;;;;;5012682;28;19914;-69
2022/10/19 06:29:43;;;;;;;;;;;;;;;;;;5012220;28;19909;-71
2022/10/19 06:32:09;;;;;;;;;;;;;;;;;;5009525;28;19921;-70
2022/10/19 06:34:35;;;;;;;;;;;;;;;;;;5011160;28;20012;-69
2022/10/19 06:37:00;;;;;;;;;;;;;;;;;;5011397;28;19913;-70
2022/10/19 06:39:26;;;;;;;;;;;;;;;;;;5016908;28;19975;-69
2022/10/19 06:41:52;;;;;;;;;;;;;;;;;;5030412;28;19909;-71
2022/10/19 06:44:18;;;;;;;;;;;;;;;;;;5030365;28;19916;-71
2022/10/19 06:46:44;;;;;;;;;;;;;;;;;;5030231;28;20437;-70
2022/10/19 06:49:10;;;;;;;;;;;;;;;;;;5028961;28;20366;-71
2022/10/19 06:51:36;;;;;;;;;;;;;;;;;;5008191;28;19914;-69
2022/10/19 06:54:02;;;;;;;;;;;;;;;;;;5006392;28;19920;-71
2022/10/19 06:56:28;;;;;;;;;;;;;;;;;;5007835;28;20000;-70
2022/10/19 06:58:53;;;;;;;;;;;;;;;;;;5009690;28;19918;-70
2022/10/19 07:01:19;;;;;;;;;;;;;;;;;;5016775;28;20508;-68
2022/10/19 07:03:45;;;;;;;;;;;;;;;;;;5011999;28;19910;-70
2022/10/19 07:06:11;;;;;;;;;;;;;;;;;;5014444;28;19910;-70
2022/10/19 07:08:37;;;;;;;;;;;;;;;;;;5023569;28;19920;-69
2022/10/19 07:11:03;;;;;;;;;;;;;;;;;;5014116;28;19917;-69
2022/10/19 07:13:29;;;;;;;;;;;;;;;;;;5029589;28;19921;-68
2022/10/19 07:15:55;;;;;;;;;;;;;;;;;;5027255;28;20024;-69
2022/10/19 07:18:21;;;;;;;;;;;;;;;;;;5013973;28;19909;-70
2022/10/19 07:20:46;;;;;;;;;;;;;;;;;;5013761;28;19913;-69
2022/10/19 07:23:12;;;;;;;;;;;;;;;;;;5013774;28;20003;-69
2022/10/19 07:25:38;;;;;;;;;;;;;;;;;;5012906;28;20415;-68
2022/10/19 07:28:04;;;;;;;;;;;;;;;;;;5012593;28;19924;-68
2022/10/19 07:30:30;;;;;;;;;;;;;;;;;;5013965;28;19910;-70
2022/10/19 07:32:56;;;;;;;;;;;;;;;;;;5026391;28;19953;-66
2022/10/19 07:35:22;;;;;;;;;;;;;;;;;;5013778;28;19932;-69
2022/10/19 07:37:48;;;;;;;;;;;;;;;;;;5012467;28;19928;-69
2022/10/19 07:40:14;;;;;;;;;;;;;;;;;;5016728;28;20455;-69
2022/10/19 07:42:39;;;;;;;;;;;;;;;;;;5019331;28;19913;-69
2022/10/19 07:45:05;;;;;;;;;;;;;;;;;;5032748;28;20297;-66
2022/10/19 07:47:31;;;;;;;;;;;;;;;;;;5012961;28;19924;-70
2022/10/19 07:49:57;;;;;;;;;;;;;;;;;;5020904;28;19936;-69
2022/10/19 07:52:23;;;;;;;;;;;;;;;;;;5015199;28;19924;-69
2022/10/19 07:54:49;;;;;;;;;;;;;;;;;;5011593;28;20498;-69
2022/10/19 07:57:15;;;;;;;;;;;;;;;;;;5013334;28;19914;-69
2022/10/19 07:59:41;;;;;;;;;;;;;;;;;;5023786;28;19909;-68
2022/10/19 08:02:07;;;;;;;;;;;;;;;;;;5020760;28;20014;-70
2022/10/19 08:04:33;;;;;;;;;;;;;;;;;;5013319;28;19963;-70
2022/10/19 08:06:58;;;;;;;;;;;;;;;;;;5022948;28;20465;-70
2022/10/19 08:09:24;;;;;;;;;;;;;;;;;;5031926;28;19921;-69
2022/10/19 08:11:50;;;;;;;;;;;;;;;;;;5022407;28;19925;-70
2022/10/19 08:14:16;;;;;;;;;;;;;;;;;;5013548;28;19917;-70
2022/10/19 08:16:43;;;;;;;;;;;;;;;;;;5014063;28;19979;-69
2022/10/19 08:19:09;;;;;;;;;;;;;;;;;;5031778;28;19909;-69
2022/10/19 08:21:35;;;;;;;;;;;;;;;;;;5027756;28;20490;-68
2022/10/19 08:24:01;;;;;;;;;;;;;;;;;;5011569;28;20320;-68
2022/10/19 08:26:27;;;;;;;;;;;;;;;;;;5013265;28;19914;-69
2022/10/19 08:28:52;;;;;;;;;;;;;;;;;;5012449;28;19913;-69
2022/10/19 08:31:18;;;;;;;;;;;;;;;;;;5010945;28;19960;-69
2022/10/19 08:33:44;;;;;;;;;;;;;;;;;;5011355;28;20007;-69
2022/10/19 08:36:10;;;;;;;;;;;;;;;;;;5013681;28;19964;-69
2022/10/19 08:38:36;;;;;;;;;;;;;;;;;;5018074;28;19929;-69
2022/10/19 08:41:02;;;;;;;;;;;;;;;;;;5021445;28;20466;-69
2022/10/19 08:43:28;;;;;;;;;;;;;;;;;;5012197;28;20287;-69
2022/10/19 08:45:54;;;;;;;;;;;;;;;;;;5010529;28;20016;-64
2022/10/19 08:48:20;;;;;;;;;;;;;;;;;;5016540;28;19964;-62
2022/10/19 08:50:46;;;;;;;;;;;;;;;;;;5031134;28;20385;-64
2022/10/19 08:53:11;;;;;;;;;;;;;;;;;;5019950;28;19921;-63
2022/10/19 08:55:37;;;;;;;;;;;;;;;;;;5010095;28;19917;-63
2022/10/19 08:58:03;;;;;;;;;;;;;;;;;;5027795;28;19917;-62
2022/10/19 09:00:29;;;;;;;;;;;;;;;;;;5020443;28;19910;-64
2022/10/19 09:02:55;;;;;;;;;;;;;;;;;;5011905;28;19920;-63
2022/10/19 09:05:21;;;;;;;;;;;;;;;;;;5012318;28;19909;-63
2022/10/19 09:07:47;;;;;;;;;;;;;;;;;;5011992;28;19913;-63
2022/10/19 09:10:13;;;;;;;;;;;;;;;;;;5011983;28;19960;-65
2022/10/19 09:12:39;;;;;;;;;;;;;;;;;;5028015;28;19969;-64
2022/10/19 09:15:05;;;;;;;;;;;;;;;;;;5014757;28;19955;-64
2022/10/19 09:17:31;;;;;;;;;;;;;;;;;;5011842;28;19917;-63
2022/10/19 09:19:57;;;;;;;;;;;;;;;;;;5011472;28;19921;-63
2022/10/19 09:22:23;;;;;;;;;;;;;;;;;;5012013;28;19949;-63
2022/10/19 09:24:49;;;;;;;;;;;;;;;;;;5012058;28;19996;-62
2022/10/19 09:27:15;;;;;;;;;;;;;;;;;;5010860;28;20355;-62
2022/10/19 09:29:41;;;;;;;;;;;;;;;;;;5011836;28;20325;-65
2022/10/19 09:32:07;;;;;;;;;;;;;;;;;;5017608;28;20410;-64
2022/10/19 09:34:33;;;;;;;;;;;;;;;;;;5011837;28;19910;-64
2022/10/19 09:36:59;;;;;;;;;;;;;;;;;;5011063;28;19999;-65
2022/10/19 09:39:25;;;;;;;;;;;;;;;;;;5017853;28;19916;-64
2022/10/19 09:41:51;;;;;;;;;;;;;;;;;;5029275;28;19909;-64
2022/10/19 09:44:17;;;;;;;;;;;;;;;;;;5010607;28;19916;-63
2022/10/19 09:46:43;;;;;;;;;;;;;;;;;;5030972;28;20377;-64
2022/10/19 09:49:17;;;;;;;;;;;;;;;;;;5086053;27;19993;-64
2022/10/19 09:51:42;;;;;;;;;;;;;;;;;;5047233;28;20436;-63
2022/10/19 09:54:08;;;;;;;;;;;;;;;;;;5047433;28;19948;-63
2022/10/19 09:56:36;;;;;;;;;;;;;;;;;;5040393;28;20277;-62
2022/10/19 09:59:02;;;;;;;;;;;;;;;;;;5047429;28;20000;-63
2022/10/19 10:01:29;;;;;;;;;;;;;;;;;;5046621;28;20012;-62
2022/10/19 10:03:54;;;;;;;;;;;;;;;;;;5046624;28;19913;-61
2022/10/19 10:06:20;;;;;;;;;;;;;;;;;;5046913;28;19967;-63
2022/10/19 10:08:46;;;;;;;;;;;;;;;;;;5047202;28;20003;-62
2022/10/19 10:11:12;;;;;;;;;;;;;;;;;;5046377;28;19912;-61
2022/10/19 10:13:38;;;;;;;;;;;;;;;;;;5045641;28;19910;-62
2022/10/19 10:16:04;;;;;;;;;;;;;;;;;;5046604;28;19948;-63
2022/10/19 10:18:30;;;;;;;;;;;;;;;;;;5045895;28;19975;-63
2022/10/19 10:20:56;;;;;;;;;;;;;;;;;;5046141;28;19979;-62
2022/10/19 10:23:21;;;;;;;;;;;;;;;;;;5046953;28;19936;-63
2022/10/19 10:25:47;;;;;;;;;;;;;;;;;;5039630;28;19948;-62
2022/10/19 10:28:13;;;;;;;;;;;;;;;;;;5045713;28;19986;-64
2022/10/19 10:30:39;;;;;;;;;;;;;;;;;;5045102;28;19920;-63
2022/10/19 10:33:05;;;;;;;;;;;;;;;;;;5046444;28;19939;-63
2022/10/19 10:35:31;;;;;;;;;;;;;;;;;;5046228;28;19909;-62
2022/10/19 10:37:57;;;;;;;;;;;;;;;;;;5044781;28;20297;-63
2022/10/19 10:40:23;;;;;;;;;;;;;;;;;;5045646;28;20446;-62
2022/10/19 10:42:48;;;;;;;;;;;;;;;;;;5045235;28;19913;-64
2022/10/19 10:45:15;;;;;;;;;;;;;;;;;;5045225;28;20428;-63
2022/10/19 10:47:40;;;;;;;;;;;;;;;;;;5045032;28;19921;-62
2022/10/19 10:50:06;;;;;;;;;;;;;;;;;;5045220;28;20283;-63
2022/10/19 10:52:33;;;;;;;;;;;;;;;;;;5045945;28;19912;-64
2022/10/19 10:54:59;;;;;;;;;;;;;;;;;;5045746;28;19910;-64
2022/10/19 10:57:24;;;;;;;;;;;;;;;;;;5045354;28;19916;-63
2022/10/19 10:59:50;;;;;;;;;;;;;;;;;;5036941;28;20455;-62
2022/10/19 11:02:16;;;;;;;;;;;;;;;;;;5030379;28;19963;-61
2022/10/19 11:04:42;;;;;;;;;;;;;;;;;;5031454;28;19921;-64
2022/10/19 11:07:08;;;;;;;;;;;;;;;;;;5032903;28;19913;-62
2022/10/19 11:09:34;;;;;;;;;;;;;;;;;;5032852;28;20008;-64
2022/10/19 11:12:00;;;;;;;;;;;;;;;;;;5032503;28;19976;-62
2022/10/19 11:14:26;;;;;;;;;;;;;;;;;;5032760;28;19913;-64
2022/10/19 11:16:51;;;;;;;;;;;;;;;;;;5032897;28;20011;-63
2022/10/19 11:19:17;;;;;;;;;;;;;;;;;;5029293;28;19917;-65
2022/10/19 11:21:43;;;;;;;;;;;;;;;;;;5031313;28;19916;-63
2022/10/19 11:24:09;;;;;;;;;;;;;;;;;;5033356;28;19967;-64
2022/10/19 11:26:35;;;;;;;;;;;;;;;;;;5033054;28;19955;-65
2022/10/19 11:29:01;;;;;;;;;;;;;;;;;;5033564;28;19928;-64
2022/10/19 11:31:27;;;;;;;;;;;;;;;;;;5033148;28;19913;-65
2022/10/19 11:33:53;;;;;;;;;;;;;;;;;;5032947;28;19941;-63
2022/10/19 11:36:19;;;;;;;;;;;;;;;;;;5032925;28;19923;-64
2022/10/19 11:38:45;;;;;;;;;;;;;;;;;;5032584;28;20000;-65
2022/10/19 11:41:11;;;;;;;;;;;;;;;;;;5033311;28;19909;-65
2022/10/19 11:43:36;;;;;;;;;;;;;;;;;;5033155;28;19929;-65
2022/10/19 11:46:02;;;;;;;;;;;;;;;;;;5031904;28;20393;-63
2022/10/19 11:48:28;;;;;;;;;;;;;;;;;;5032553;28;19932;-66
2022/10/19 11:50:54;;;;;;;;;;;;;;;;;;5033204;28;20412;-64
2022/10/19 11:53:20;;;;;;;;;;;;;;;;;;5032809;28;19909;-64
2022/10/19 11:55:46;;;;;;;;;;;;;;;;;;5032550;28;20311;-64
2022/10/19 11:58:12;;;;;;;;;;;;;;;;;;5025855;28;19924;-65
2022/10/19 12:00:38;;;;;;;;;;;;;;;;;;5032727;28;20484;-65
2022/10/19 12:03:04;;;;;;;;;;;;;;;;;;5033669;28;19919;-64
2022/10/19 12:05:29;;;;;;;;;;;;;;;;;;5044539;28;20004;-65
2022/10/19 12:07:55;;;;;;;;;;;;;;;;;;5032277;28;19910;-64
2022/10/19 12:10:21;;;;;;;;;;;;;;;;;;5031758;28;19913;-65
2022/10/19 12:12:48;;;;;;;;;;;;;;;;;;5032184;28;20020;-64
2022/10/19 12:15:13;;;;;;;;;;;;;;;;;;5032397;28;20459;-63
2022/10/19 12:17:42;;;;;;;;;;;;;;;;;;5032189;28;19917;-64
2022/10/19 12:20:08;;;;;;;;;;;;;;;;;;5032929;28;19921;-65
2022/10/19 12:22:36;;;;;;;;;;;;;;;;;;5032045;28;19920;-64
2022/10/19 12:25:02;;;;;;;;;;;;;;;;;;5025678;28;20027;-64
2022/10/19 12:27:27;;;;;;;;;;;;;;;;;;5032603;28;20017;-64
2022/10/19 12:29:53;;;;;;;;;;;;;;;;;;5032466;28;19943;-64
2022/10/19 12:32:19;;;;;;;;;;;;;;;;;;5031638;28;19963;-64
2022/10/19 12:34:45;;;;;;;;;;;;;;;;;;5032288;28;19920;-63
2022/10/19 12:37:11;;;;;;;;;;;;;;;;;;5027061;28;19909;-64
2022/10/19 12:39:37;;;;;;;;;;;;;;;;;;5031617;28;20000;-64
2022/10/19 12:42:03;;;;;;;;;;;;;;;;;;5031812;28;19924;-64
2022/10/19 12:44:29;;;;;;;;;;;;;;;;;;5031624;28;19913;-65
2022/10/19 12:46:55;;;;;;;;;;;;;;;;;;5031590;28;19916;-65
2022/10/19 12:49:20;;;;;;;;;;;;;;;;;;5031994;28;19917;-64
2022/10/19 12:51:46;;;;;;;;;;;;;;;;;;5031578;28;19913;-64
2022/10/19 12:54:12;;;;;;;;;;;;;;;;;;5031166;28;20528;-63
2022/10/19 12:56:38;;;;;;;;;;;;;;;;;;5031862;28;19913;-65
2022/10/19 12:59:04;;;;;;;;;;;;;;;;;;5031952;28;19917;-64
2022/10/19 13:01:30;;;;;;;;;;;;;;;;;;5031423;28;19910;-64
2022/10/19 13:03:56;;;;;;;;;;;;;;;;;;5031278;28;19948;-63
2022/10/19 13:06:22;;;;;;;;;;;;;;;;;;5031999;28;19909;-63
2022/10/19 13:08:47;;;;;;;;;;;;;;;;;;5031182;28;19913;-64
2022/10/19 13:11:14;;;;;;;;;;;;;;;;;;5031226;28;19973;-64
2022/10/19 13:13:40;;;;;;;;;;;;;;;;;;5031470;28;19909;-63
2022/10/19 13:16:05;;;;;;;;;;;;;;;;;;5031258;28;19913;-65
2022/10/19 13:18:31;;;;;;;;;;;;;;;;;;5031293;28;20433;-62
2022/10/19 13:20:57;;;;;;;;;;;;;;;;;;5030725;28;19909;-63
2022/10/19 13:23:23;;;;;;;;;;;;;;;;;;5030987;28;19916;-63
2022/10/19 13:25:49;;;;;;;;;;;;;;;;;;5030957;28;19913;-64
2022/10/19 13:28:15;;;;;;;;;;;;;;;;;;5031335;28;19909;-62
2022/10/19 13:30:41;;;;;;;;;;;;;;;;;;5030783;28;19913;-62
2022/10/19 13:33:07;;;;;;;;;;;;;;;;;;5031493;28;20377;-63
2022/10/19 13:35:32;;;;;;;;;;;;;;;;;;5030339;28;20413;-62
2022/10/19 13:37:58;;;;;;;;;;;;;;;;;;5030597;28;20015;-61
2022/10/19 13:40:24;;;;;;;;;;;;;;;;;;5030454;28;19921;-63
2022/10/19 13:42:50;;;;;;;;;;;;;;;;;;5030812;28;20459;-61
2022/10/19 13:45:16;;;;;;;;;;;;;;;;;;5031364;28;20008;-62
2022/10/19 13:47:42;;;;;;;;;;;;;;;;;;5030603;28;19928;-64
2022/10/19 13:50:08;;;;;;;;;;;;;;;;;;5030351;28;20179;-63
2022/10/19 13:52:34;;;;;;;;;;;;;;;;;;5030683;28;19945;-62
2022/10/19 13:54:59;;;;;;;;;;;;;;;;;;5030596;28;19909;-61
2022/10/19 13:57:25;;;;;;;;;;;;;;;;;;5023983;28;19914;-63
2022/10/19 13:59:53;;;;;;;;;;;;;;;;;;5030432;28;19988;-62
2022/10/19 14:02:19;;;;;;;;;;;;;;;;;;5029346;28;20660;-63
2022/10/19 14:04:45;;;;;;;;;;;;;;;;;;5029979;28;19909;-63
2022/10/19 14:07:11;;;;;;;;;;;;;;;;;;5030870;28;19909;-60
2022/10/19 14:09:37;;;;;;;;;;;;;;;;;;5030614;28;19913;-63
2022/10/19 14:12:05;;;;;;;;;;;;;;;;;;5030084;28;20115;-63
2022/10/19 14:14:31;;;;;;;;;;;;;;;;;;5030220;28;20350;-62
2022/10/19 14:16:57;;;;;;;;;;;;;;;;;;5030667;28;19920;-63
2022/10/19 14:19:26;;;;;;;;;;;;;;;;;;5030264;28;19921;-63
2022/10/19 14:21:52;;;;;;;;;;;;;;;;;;5028434;28;20328;-62
2022/10/19 14:24:17;;;;;;;;;;;;;;;;;;5023944;28;20043;-63
2022/10/19 14:26:43;;;;;;;;;;;;;;;;;;5030908;28;19910;-63
2022/10/19 14:29:09;;;;;;;;;;;;;;;;;;5030263;28;19916;-63
2022/10/19 14:31:35;;;;;;;;;;;;;;;;;;5030700;28;20259;-62
2022/10/19 14:34:01;;;;;;;;;;;;;;;;;;5030373;28;19917;-63
2022/10/19 14:36:28;;;;;;;;;;;;;;;;;;5027392;28;20402;-61
2022/10/19 14:38:54;;;;;;;;;;;;;;;;;;5033735;28;19957;-63
2022/10/19 14:41:20;;;;;;;;;;;;;;;;;;5034046;28;19941;-63
2022/10/19 14:43:46;;;;;;;;;;;;;;;;;;5033679;28;19992;-63
2022/10/19 14:46:11;;;;;;;;;;;;;;;;;;5033761;28;19916;-63
2022/10/19 14:48:37;;;;;;;;;;;;;;;;;;5033810;28;20004;-64
2022/10/19 14:51:03;;;;;;;;;;;;;;;;;;5033040;28;19909;-64
2022/10/19 14:53:29;;;;;;;;;;;;;;;;;;5034135;28;19975;-64
2022/10/19 14:55:55;;;;;;;;;;;;;;;;;;5033984;28;19952;-62
2022/10/19 14:58:21;;;;;;;;;;;;;;;;;;5034551;28;19921;-64
2022/10/19 15:00:47;;;;;;;;;;;;;;;;;;5033504;28;19909;-63
2022/10/19 15:03:13;;;;;;;;;;;;;;;;;;5033312;28;19909;-63
2022/10/19 15:05:40;;;;;;;;;;;;;;;;;;5034295;28;19959;-63
2022/10/19 15:08:06;;;;;;;;;;;;;;;;;;5033736;28;19960;-62
2022/10/19 15:10:32;;;;;;;;;;;;;;;;;;5033504;28;19913;-64
2022/10/19 15:13:01;;;;;;;;;;;;;;;;;;5032487;28;19913;-61
2022/10/19 15:15:27;;;;;;;;;;;;;;;;;;5033196;28;20008;-63
2022/10/19 15:17:53;;;;;;;;;;;;;;;;;;5031577;28;20064;-63
2022/10/19 15:20:19;;;;;;;;;;;;;;;;;;5033663;28;19913;-63
2022/10/19 15:22:45;;;;;;;;;;;;;;;;;;5033289;28;20397;-63
2022/10/19 15:25:11;;;;;;;;;;;;;;;;;;5032308;28;19962;-63
2022/10/19 15:27:37;;;;;;;;;;;;;;;;;;5031352;28;20049;-62
2022/10/19 15:30:02;;;;;;;;;;;;;;;;;;5032536;28;20047;-62
2022/10/19 15:32:28;;;;;;;;;;;;;;;;;;5031394;28;19960;-62
2022/10/19 15:34:54;;;;;;;;;;;;;;;;;;5032334;28;20447;-64
2022/10/19 15:37:20;;;;;;;;;;;;;;;;;;5032155;28;20399;-65
2022/10/19 15:39:46;;;;;;;;;;;;;;;;;;5031061;28;19917;-63
2022/10/19 15:42:12;;;;;;;;;;;;;;;;;;5032564;28;19909;-63
2022/10/19 15:44:38;;;;;;;;;;;;;;;;;;5032679;28;20344;-62
2022/10/19 15:47:04;;;;;;;;;;;;;;;;;;5032140;28;19913;-64
2022/10/19 15:49:30;;;;;;;;;;;;;;;;;;5032106;28;20468;-65
2022/10/19 15:51:56;;;;;;;;;;;;;;;;;;5032511;28;20000;-64
2022/10/19 15:54:22;;;;;;;;;;;;;;;;;;5032195;28;19913;-63
2022/10/19 15:56:48;;;;;;;;;;;;;;;;;;5032256;28;20370;-62
2022/10/19 15:59:14;;;;;;;;;;;;;;;;;;5032578;28;19959;-64
2022/10/19 16:01:40;;;;;;;;;;;;;;;;;;5032204;28;19916;-64
2022/10/19 16:04:06;;;;;;;;;;;;;;;;;;5031838;28;19951;-64
2022/10/19 16:06:32;;;;;;;;;;;;;;;;;;5031615;28;19913;-62
2022/10/19 16:08:58;;;;;;;;;;;;;;;;;;5031795;28;19920;-62
2022/10/19 16:11:24;;;;;;;;;;;;;;;;;;5031490;28;19974;-64
2022/10/19 16:13:50;;;;;;;;;;;;;;;;;;5031872;28;20274;-63
2022/10/19 16:16:17;;;;;;;;;;;;;;;;;;5031829;28;19909;-62
2022/10/19 16:18:43;;;;;;;;;;;;;;;;;;5031970;28;19925;-64
2022/10/19 16:21:08;;;;;;;;;;;;;;;;;;5031378;28;20404;-63
2022/10/19 16:23:36;;;;;;;;;;;;;;;;;;5032035;28;19945;-64
2022/10/19 16:26:02;;;;;;;;;;;;;;;;;;5031519;28;19913;-63
2022/10/19 16:28:28;;;;;;;;;;;;;;;;;;5032013;28;19923;-65
2022/10/19 16:30:54;;;;;;;;;;;;;;;;;;5028530;28;20047;-64
2022/10/19 16:33:20;;;;;;;;;;;;;;;;;;5031048;28;19913;-64
2022/10/19 16:35:46;;;;;;;;;;;;;;;;;;5031364;28;20039;-64